Bellefontaine, Ohio
Current Conditions -  °F | °C
As of 11:50 AM on Saturday 25 Oct 2014 (Local Time) from KEDJ Reporting Station
Broken Clouds Broken Clouds  
Wind Chill: 63°   Ceiling: 2300
Heat Index: 63°   Visibility: 0.5mi
Dew Point: 54°   Wind: 10mph
Humidity: 72%   Direction: 240°WSW
Pressure: 29.93"   Gusts: NA
Location:  40.36°N, 83.76°W
Report Text: KEDJ 251550Z AUTO 24009KT 1/2SM BKN023 17/12 A2993 RMK AO1
Loading
Personal Weather Stations






























Interactive Weather Map
Tropical Storm Tracking
New forecast layout! Learn more

10-Day Weather Forecast

Advertisements
Track Severe Weather on mobile